createdAt,value
2018-06-11T00:01:43.131Z,23.16
2018-06-11T00:04:11.815Z,23.19
2018-06-11T00:06:40.518Z,23.21
2018-06-11T00:09:09.443Z,23.24
2018-06-11T00:11:38.093Z,23.26
2018-06-11T00:14:06.810Z,23.21
2018-06-11T00:16:35.283Z,23.16
2018-06-11T00:19:03.826Z,23.15
2018-06-11T00:21:32.307Z,23.19
2018-06-11T00:24:00.917Z,23.14
2018-06-11T00:26:29.444Z,23.15
2018-06-11T00:28:58.080Z,23.12
2018-06-11T00:31:26.701Z,23.11
2018-06-11T00:33:55.311Z,23.11
2018-06-11T00:36:23.827Z,23.06
2018-06-11T00:38:52.395Z,23.00
2018-06-11T00:41:20.929Z,22.94
2018-06-11T00:43:49.505Z,22.95
2018-06-11T00:46:18.097Z,22.92
2018-06-11T00:48:46.630Z,22.89
2018-06-11T00:51:15.127Z,22.85
2018-06-11T00:53:43.653Z,22.82
2018-06-11T00:56:12.174Z,22.75
2018-06-11T00:58:40.669Z,22.71
2018-06-11T01:01:09.253Z,22.65
2018-06-11T01:03:37.851Z,22.58
2018-06-11T01:06:06.407Z,22.56
2018-06-11T01:08:35.028Z,22.54
2018-06-11T01:11:03.643Z,22.53
2018-06-11T01:13:32.269Z,22.52
2018-06-11T01:16:00.795Z,22.50
2018-06-11T01:18:29.319Z,22.50
2018-06-11T01:20:57.817Z,22.51
2018-06-11T01:23:26.362Z,22.51
2018-06-11T01:25:54.984Z,22.48
2018-06-11T01:28:23.444Z,22.44
2018-06-11T01:30:51.991Z,22.44
2018-06-11T01:33:20.528Z,22.43
2018-06-11T01:35:49.016Z,22.41
2018-06-11T01:38:17.584Z,22.41
2018-06-11T01:40:46.133Z,22.38
2018-06-11T01:43:14.705Z,22.37
2018-06-11T01:45:43.231Z,22.33
2018-06-11T01:48:12.895Z,22.31
2018-06-11T01:50:41.479Z,22.30
2018-06-11T01:53:11.053Z,22.31
2018-06-11T01:55:39.632Z,22.34
2018-06-11T01:58:08.466Z,22.33
2018-06-11T02:00:37.081Z,22.34
2018-06-11T02:03:05.736Z,22.34
2018-06-11T02:05:34.243Z,22.33
2018-06-11T02:08:02.789Z,22.30
2018-06-11T02:10:31.423Z,22.29
2018-06-11T02:12:59.950Z,22.31
2018-06-11T02:15:28.546Z,22.27
2018-06-11T02:17:57.118Z,22.32
2018-06-11T02:20:25.690Z,22.31
2018-06-11T02:22:54.299Z,22.31
2018-06-11T02:25:22.851Z,22.31
2018-06-11T02:27:51.433Z,22.30
2018-06-11T02:30:20.046Z,22.29
2018-06-11T02:32:48.651Z,22.31
2018-06-11T02:35:17.214Z,22.27
2018-06-11T02:37:45.813Z,22.27
2018-06-11T02:40:14.356Z,22.29
2018-06-11T02:42:42.989Z,22.29
2018-06-11T02:45:11.664Z,22.25
2018-06-11T02:47:40.367Z,22.26
2018-06-11T02:50:09.037Z,22.19
2018-06-11T02:52:37.787Z,22.17
2018-06-11T02:55:06.559Z,22.16
2018-06-11T02:57:35.337Z,22.17
2018-06-11T03:00:04.012Z,22.16
2018-06-11T03:02:32.670Z,22.22
2018-06-11T03:05:01.356Z,22.24
2018-06-11T03:07:29.927Z,22.28
2018-06-11T03:09:58.574Z,22.22
2018-06-11T03:12:27.249Z,22.19
2018-06-11T03:14:55.894Z,22.15
2018-06-11T03:17:24.539Z,22.12
2018-06-11T03:19:53.226Z,22.13
2018-06-11T03:22:21.924Z,22.17
2018-06-11T03:24:51.400Z,22.16
2018-06-11T03:27:20.012Z,22.16
2018-06-11T03:29:48.756Z,22.13
2018-06-11T03:32:17.396Z,22.08
2018-06-11T03:34:46.092Z,22.08
2018-06-11T03:37:14.887Z,22.10
2018-06-11T03:39:43.545Z,22.11
2018-06-11T03:42:12.255Z,22.12
2018-06-11T03:44:40.803Z,22.14
2018-06-11T03:47:09.356Z,22.13
2018-06-11T03:49:37.966Z,22.11
2018-06-11T03:52:06.724Z,22.07
2018-06-11T03:54:35.204Z,22.05
2018-06-11T03:57:03.816Z,22.02
2018-06-11T03:59:32.656Z,22.05
2018-06-11T04:02:01.209Z,22.00
2018-06-11T04:04:29.854Z,22.01
2018-06-11T04:06:58.488Z,22.01
2018-06-11T04:09:27.061Z,22.00
2018-06-11T04:11:55.609Z,21.97
2018-06-11T04:14:24.164Z,21.91
2018-06-11T04:16:52.818Z,21.87
2018-06-11T04:19:21.328Z,21.91
2018-06-11T04:21:49.938Z,21.93
2018-06-11T04:24:18.536Z,21.95
2018-06-11T04:26:48.486Z,21.87
2018-06-11T04:29:17.067Z,21.80
2018-06-11T04:31:45.598Z,21.78
2018-06-11T04:34:14.159Z,21.82
2018-06-11T04:36:42.674Z,21.87
2018-06-11T04:39:11.172Z,21.94
2018-06-11T04:41:40.207Z,21.97
2018-06-11T04:44:08.917Z,22.02
2018-06-11T04:46:37.646Z,22.10
2018-06-11T04:49:06.397Z,22.13
2018-06-11T04:51:34.995Z,22.16
2018-06-11T04:54:03.543Z,22.20
2018-06-11T04:56:32.264Z,22.19
2018-06-11T04:59:00.849Z,22.21
2018-06-11T05:01:29.463Z,22.23
2018-06-11T05:03:58.075Z,22.22
2018-06-11T05:06:26.659Z,22.23
2018-06-11T05:08:55.782Z,22.31
2018-06-11T05:11:24.542Z,22.37
2018-06-11T05:13:53.244Z,22.37
2018-06-11T05:16:21.964Z,22.43
2018-06-11T05:18:50.701Z,22.53
2018-06-11T05:21:19.374Z,22.58
2018-06-11T05:23:48.127Z,22.68
2018-06-11T05:26:16.794Z,22.74
2018-06-11T05:28:45.455Z,22.75
2018-06-11T05:31:14.140Z,22.84
2018-06-11T05:33:42.871Z,22.89
2018-06-11T05:36:11.799Z,22.99
2018-06-11T05:38:40.410Z,23.08
2018-06-11T05:41:09.174Z,23.15
2018-06-11T05:43:38.109Z,23.18
2018-06-11T05:46:06.888Z,23.23
2018-06-11T05:48:35.793Z,23.33
2018-06-11T05:51:04.512Z,23.36
2018-06-11T05:53:33.160Z,23.40
2018-06-11T05:56:01.765Z,23.47
2018-06-11T05:58:30.400Z,23.53
2018-06-11T06:00:58.915Z,23.59
2018-06-11T06:03:27.456Z,23.63
2018-06-11T06:05:56.120Z,23.64
2018-06-11T06:08:25.944Z,23.64
2018-06-11T06:10:54.832Z,23.59
2018-06-11T06:13:23.481Z,23.46
2018-06-11T06:15:52.184Z,23.44
2018-06-11T06:18:20.877Z,23.43
2018-06-11T06:20:49.399Z,23.28
2018-06-11T06:23:18.049Z,23.22
2018-06-11T06:25:46.727Z,23.21
2018-06-11T06:28:15.318Z,23.24
2018-06-11T06:30:43.832Z,23.27
2018-06-11T06:33:12.500Z,23.38
2018-06-11T06:35:41.390Z,23.48
2018-06-11T06:38:10.295Z,23.55
2018-06-11T06:40:39.085Z,23.68
2018-06-11T06:43:08.757Z,23.85
2018-06-11T06:45:38.062Z,24.00
2018-06-11T06:48:06.706Z,24.16
2018-06-11T06:50:36.254Z,24.39
2018-06-11T06:53:05.587Z,24.60
2018-06-11T06:55:34.207Z,24.69
2018-06-11T06:58:03.360Z,24.69
2018-06-11T07:00:32.568Z,24.73
2018-06-11T07:03:01.504Z,24.78
2018-06-11T07:05:30.132Z,24.79
2018-06-11T07:07:58.946Z,24.85
2018-06-11T07:10:28.204Z,25.04
2018-06-11T07:12:56.795Z,25.15
2018-06-11T07:15:25.445Z,25.16
2018-06-11T07:17:54.160Z,25.21
2018-06-11T07:20:22.933Z,25.43
2018-06-11T07:22:52.522Z,25.67
2018-06-11T07:27:55.780Z,26.07
2018-06-11T07:30:24.631Z,26.26
2018-06-11T07:32:53.328Z,26.38
2018-06-11T07:35:22.193Z,26.58
2018-06-11T07:37:50.878Z,26.51
2018-06-11T07:40:19.807Z,26.47
2018-06-11T07:42:48.352Z,26.67
2018-06-11T07:45:17.442Z,26.85
2018-06-11T07:47:46.220Z,27.31
2018-06-11T07:50:14.921Z,27.79
2018-06-11T07:52:43.467Z,27.98
2018-06-11T07:55:12.304Z,28.34
2018-06-11T07:57:40.976Z,28.54
2018-06-11T08:00:09.541Z,29.02
2018-06-11T08:02:38.005Z,29.22
2018-06-11T08:05:06.732Z,29.29
2018-06-11T08:07:35.430Z,29.77
2018-06-11T08:10:04.219Z,30.16
2018-06-11T08:12:33.302Z,30.32
2018-06-11T08:15:02.667Z,30.11
2018-06-11T08:17:31.234Z,29.70
2018-06-11T08:19:59.956Z,29.39
2018-06-11T08:22:28.691Z,29.33
2018-06-11T08:24:57.251Z,29.28
2018-06-11T08:27:26.012Z,29.34
2018-06-11T08:29:54.639Z,29.81
2018-06-11T08:32:23.114Z,30.26
2018-06-11T08:34:51.705Z,30.79
2018-06-11T08:37:20.292Z,31.76
2018-06-11T08:39:48.851Z,32.62
2018-06-11T08:42:17.422Z,33.42
2018-06-11T08:44:46.059Z,33.54
2018-06-11T08:47:14.720Z,33.58
2018-06-11T08:49:43.417Z,33.78
2018-06-11T08:52:11.912Z,33.86
2018-06-11T08:54:40.612Z,33.83
2018-06-11T08:57:09.217Z,33.51
2018-06-11T08:59:37.824Z,33.18
2018-06-11T09:02:06.405Z,32.97
2018-06-11T09:04:34.988Z,32.77
2018-06-11T09:07:03.660Z,32.60
2018-06-11T09:09:32.407Z,33.03
2018-06-11T09:12:01.232Z,33.14
2018-06-11T09:14:30.009Z,32.87
2018-06-11T09:16:58.521Z,32.53
2018-06-11T09:19:27.930Z,32.71
2018-06-11T09:21:56.465Z,33.16
2018-06-11T09:24:25.077Z,33.72
2018-06-11T09:26:53.745Z,34.10
2018-06-11T09:29:22.537Z,34.12
2018-06-11T09:31:51.074Z,33.92
2018-06-11T09:34:20.677Z,33.71
2018-06-11T09:36:49.367Z,33.57
2018-06-11T09:39:17.979Z,33.64
2018-06-11T09:41:46.600Z,34.23
2018-06-11T09:44:15.241Z,34.46
2018-06-11T09:46:43.894Z,33.95
2018-06-11T09:49:12.520Z,33.54
2018-06-11T09:51:41.124Z,33.09
2018-06-11T09:54:09.708Z,32.77
2018-06-11T09:56:38.220Z,33.07
2018-06-11T09:59:06.767Z,33.23
2018-06-11T10:01:35.387Z,33.03
2018-06-11T10:04:03.992Z,33.49
2018-06-11T10:06:32.686Z,34.66
2018-06-11T10:09:01.436Z,35.77
2018-06-11T10:11:30.088Z,35.84
2018-06-11T10:13:58.650Z,35.92
2018-06-11T10:16:27.267Z,34.61
2018-06-11T10:18:56.023Z,36.50
2018-06-11T10:21:24.815Z,37.50
2018-06-11T10:23:53.557Z,37.99
2018-06-11T10:26:22.288Z,38.33
2018-06-11T10:28:51.061Z,38.71
2018-06-11T10:31:19.949Z,39.08
2018-06-11T10:33:48.656Z,39.60
2018-06-11T10:36:17.392Z,40.13
2018-06-11T10:38:46.041Z,40.89
2018-06-11T10:41:14.773Z,41.23
2018-06-11T10:43:43.429Z,41.50
2018-06-11T10:46:12.162Z,42.02
2018-06-11T10:48:40.903Z,42.40
2018-06-11T10:51:09.560Z,42.37
2018-06-11T10:53:38.376Z,41.55
2018-06-11T10:56:06.958Z,40.66
2018-06-11T10:58:35.619Z,40.05
2018-06-11T11:01:04.257Z,40.21
2018-06-11T11:03:32.883Z,40.44
2018-06-11T11:06:01.624Z,40.51
2018-06-11T11:08:30.274Z,40.45
2018-06-11T11:10:58.944Z,40.36
2018-06-11T11:13:27.753Z,40.06
2018-06-11T11:15:56.360Z,39.93
2018-06-11T11:18:24.892Z,39.99
2018-06-11T11:20:53.523Z,39.77
2018-06-11T11:23:22.391Z,39.37
2018-06-11T11:25:51.107Z,38.82
2018-06-11T11:28:19.832Z,37.98
2018-06-11T11:30:48.480Z,37.32
2018-06-11T11:33:17.258Z,36.03
2018-06-11T11:35:45.939Z,34.97
2018-06-11T11:38:15.524Z,34.15
2018-06-11T11:40:44.288Z,32.97
2018-06-11T11:43:13.135Z,33.16
2018-06-11T11:45:41.722Z,32.71
2018-06-11T11:48:10.659Z,32.45
2018-06-11T11:50:40.054Z,32.37
2018-06-11T11:53:09.048Z,32.25
2018-06-11T11:55:38.099Z,32.18
2018-06-11T11:58:07.090Z,32.07
2018-06-11T12:00:36.195Z,31.84
2018-06-11T12:03:05.368Z,31.83
2018-06-11T12:05:36.454Z,31.96
2018-06-11T12:08:05.295Z,31.95
2018-06-11T12:10:34.367Z,31.83
2018-06-11T12:13:03.552Z,31.71
2018-06-11T12:15:34.071Z,31.52
2018-06-11T12:18:03.766Z,31.49
2018-06-11T12:20:34.071Z,31.31
2018-06-11T12:23:02.679Z,31.22
2018-06-11T12:25:31.618Z,31.10
2018-06-11T12:28:00.380Z,31.12
2018-06-11T12:30:29.031Z,31.13
2018-06-11T12:32:57.668Z,30.93
2018-06-11T12:35:26.297Z,30.92
2018-06-11T12:37:54.846Z,30.95
2018-06-11T12:40:23.281Z,30.88
2018-06-11T12:42:52.178Z,30.83
2018-06-11T12:45:21.053Z,30.68
2018-06-11T12:47:49.893Z,30.75
2018-06-11T12:50:18.350Z,30.78
2018-06-11T12:52:47.040Z,30.85
2018-06-11T12:55:16.177Z,30.87
2018-06-11T12:57:45.241Z,31.00
2018-06-11T13:00:14.064Z,31.08
2018-06-11T13:02:42.878Z,31.13
2018-06-11T13:05:13.377Z,31.21
2018-06-11T13:07:42.297Z,31.40
2018-06-11T13:10:11.076Z,31.58
2018-06-11T13:12:40.174Z,31.67
2018-06-11T13:15:09.269Z,31.82
2018-06-11T13:17:38.403Z,32.00
2018-06-11T13:20:07.385Z,32.07
2018-06-11T13:22:36.563Z,32.08
2018-06-11T13:25:06.159Z,31.99
2018-06-11T13:27:35.079Z,31.76
2018-06-11T13:30:04.005Z,31.71
2018-06-11T13:32:35.101Z,31.54
2018-06-11T13:35:04.217Z,31.49
2018-06-11T13:37:32.871Z,31.41
2018-06-11T13:40:01.908Z,31.48
2018-06-11T13:42:30.699Z,31.48
2018-06-11T13:44:59.402Z,31.45
2018-06-11T13:47:28.006Z,31.42
2018-06-11T13:49:56.784Z,31.33
2018-06-11T13:52:26.589Z,31.43
2018-06-11T13:54:55.253Z,31.44
2018-06-11T13:57:24.177Z,31.34
2018-06-11T13:59:52.827Z,31.12
2018-06-11T14:02:21.632Z,31.04
2018-06-11T14:04:50.655Z,31.01
2018-06-11T14:07:19.412Z,30.99
2018-06-11T14:09:48.401Z,30.79
2018-06-11T14:12:17.935Z,30.72
2018-06-11T14:14:46.682Z,30.62
2018-06-11T14:17:15.334Z,30.57
2018-06-11T14:19:43.976Z,30.45
2018-06-11T14:22:12.646Z,30.38
2018-06-11T14:24:41.479Z,30.32
2018-06-11T14:27:10.233Z,30.27
2018-06-11T14:29:39.286Z,30.24
2018-06-11T14:32:08.655Z,30.17
2018-06-11T14:34:37.635Z,30.05
2018-06-11T14:37:06.646Z,29.98
2018-06-11T14:39:35.712Z,29.86
2018-06-11T14:42:04.845Z,29.74
2018-06-11T14:44:34.712Z,28.84
2018-06-11T14:47:03.940Z,29.58
2018-06-11T14:49:32.858Z,29.46
2018-06-11T14:52:01.701Z,29.38
2018-06-11T14:54:30.602Z,29.32
2018-06-11T14:57:00.736Z,29.29
2018-06-11T14:59:29.946Z,29.28
2018-06-11T15:01:58.900Z,29.29
2018-06-11T15:04:27.632Z,29.31
2018-06-11T15:06:56.500Z,29.32
2018-06-11T15:09:25.540Z,29.34
2018-06-11T15:11:54.200Z,29.38
2018-06-11T15:14:22.935Z,29.45
2018-06-11T15:16:51.915Z,29.47
2018-06-11T15:19:20.731Z,29.52
2018-06-11T15:21:49.370Z,29.56
2018-06-11T15:24:18.147Z,29.60
2018-06-11T15:26:46.753Z,29.49
2018-06-11T15:29:15.504Z,29.32
2018-06-11T15:31:44.119Z,29.24
2018-06-11T15:34:12.809Z,29.17
2018-06-11T15:36:41.548Z,29.16
2018-06-11T15:39:10.252Z,29.12
2018-06-11T15:41:38.889Z,29.07
2018-06-11T15:44:07.830Z,29.01
2018-06-11T15:46:36.605Z,28.88
2018-06-11T15:49:05.285Z,28.83
2018-06-11T15:51:34.061Z,28.74
2018-06-11T15:54:02.731Z,28.73
2018-06-11T15:56:31.531Z,28.74
2018-06-11T15:59:00.437Z,28.65
2018-06-11T16:01:29.203Z,28.62
2018-06-11T16:03:58.056Z,28.59
2018-06-11T16:06:26.616Z,28.52
2018-06-11T16:08:56.462Z,28.46
2018-06-11T16:11:25.304Z,28.44
2018-06-11T16:13:53.877Z,28.41
2018-06-11T16:16:22.794Z,28.47
2018-06-11T16:18:51.458Z,28.37
2018-06-11T16:21:20.230Z,28.33
2018-06-11T16:23:48.836Z,28.26
2018-06-11T16:26:18.310Z,28.25
2018-06-11T16:28:47.008Z,28.27
2018-06-11T16:31:15.835Z,28.21
2018-06-11T16:33:44.706Z,28.13
2018-06-11T16:36:13.357Z,28.11
2018-06-11T16:38:41.985Z,28.08
2018-06-11T16:41:10.671Z,28.08
2018-06-11T16:43:39.540Z,28.04
2018-06-11T16:46:08.321Z,27.98
2018-06-11T16:48:37.136Z,27.94
2018-06-11T16:51:05.922Z,27.89
2018-06-11T16:53:34.678Z,27.84
2018-06-11T16:56:03.329Z,27.81
2018-06-11T16:58:31.976Z,27.81
2018-06-11T17:01:00.579Z,27.81
2018-06-11T17:03:29.247Z,27.86
2018-06-11T17:05:57.813Z,27.69
2018-06-11T17:08:26.399Z,27.82
2018-06-11T17:10:55.097Z,27.84
2018-06-11T17:13:24.044Z,27.85
2018-06-11T17:15:52.761Z,27.90
2018-06-11T17:18:21.520Z,27.93
2018-06-11T17:20:50.170Z,27.90
2018-06-11T17:23:18.931Z,27.85
2018-06-11T17:25:47.721Z,27.82
2018-06-11T17:28:16.730Z,27.79
2018-06-11T17:30:45.244Z,27.84
2018-06-11T17:33:13.732Z,27.80
2018-06-11T17:35:42.643Z,27.83
2018-06-11T17:38:11.307Z,27.83
2018-06-11T17:40:40.034Z,27.82
2018-06-11T17:43:08.762Z,27.73
2018-06-11T17:45:37.322Z,27.66
2018-06-11T17:48:06.047Z,27.61
2018-06-11T17:50:34.752Z,27.58
2018-06-11T17:53:03.351Z,27.52
2018-06-11T17:55:31.933Z,27.47
2018-06-11T17:58:00.428Z,27.39
2018-06-11T18:00:29.008Z,27.39
2018-06-11T18:02:57.497Z,27.31
2018-06-11T18:05:26.138Z,27.26
2018-06-11T18:07:54.643Z,27.18
2018-06-11T18:10:23.239Z,27.15
2018-06-11T18:12:51.774Z,27.14
2018-06-11T18:15:20.447Z,27.10
2018-06-11T18:17:50.667Z,27.06
2018-06-11T18:20:19.211Z,27.05
2018-06-11T18:22:47.743Z,27.06
2018-06-11T18:25:16.387Z,27.03
2018-06-11T18:27:44.934Z,26.98
2018-06-11T18:30:13.532Z,26.95
2018-06-11T18:32:42.275Z,26.94
2018-06-11T18:35:10.943Z,26.85
2018-06-11T18:37:39.512Z,26.84
2018-06-11T18:40:08.243Z,26.85
2018-06-11T18:42:36.880Z,26.78
2018-06-11T18:45:05.552Z,26.23
2018-06-11T18:47:34.118Z,26.70
2018-06-11T18:50:02.721Z,26.65
2018-06-11T18:52:31.410Z,26.53
2018-06-11T18:55:00.130Z,26.47
2018-06-11T18:57:28.878Z,26.42
2018-06-11T18:59:57.470Z,26.38
2018-06-11T19:02:26.149Z,26.34
2018-06-11T19:04:54.818Z,26.26
2018-06-11T19:07:23.346Z,26.20
2018-06-11T19:09:52.028Z,26.18
2018-06-11T19:12:20.797Z,26.11
2018-06-11T19:14:49.432Z,26.06
2018-06-11T19:17:18.020Z,26.00
2018-06-11T19:19:46.718Z,25.96
2018-06-11T19:22:15.329Z,25.95
2018-06-11T19:24:44.096Z,25.92
2018-06-11T19:27:13.968Z,25.91
2018-06-11T19:29:42.603Z,25.83
2018-06-11T19:32:11.321Z,25.80
2018-06-11T19:34:39.983Z,25.79
2018-06-11T19:37:12.769Z,25.78
2018-06-11T19:39:46.161Z,25.76
2018-06-11T19:42:15.171Z,25.75
2018-06-11T19:44:43.872Z,25.72
2018-06-11T19:47:12.490Z,25.70
2018-06-11T19:49:41.588Z,25.64
2018-06-11T19:52:13.920Z,25.61
2018-06-11T19:54:44.910Z,25.55
2018-06-11T19:57:13.727Z,25.52
2018-06-11T19:59:42.669Z,25.50
2018-06-11T20:02:13.353Z,25.46
2018-06-11T20:04:42.181Z,25.46
2018-06-11T20:07:10.970Z,25.43
2018-06-11T20:09:39.636Z,25.41
2018-06-11T20:12:08.375Z,25.36
2018-06-11T20:14:38.091Z,25.35
2018-06-11T20:17:06.915Z,25.30
2018-06-11T20:19:35.639Z,25.27
2018-06-11T20:22:04.352Z,25.21
2018-06-11T20:24:33.144Z,25.18
2018-06-11T20:27:02.253Z,25.15
2018-06-11T20:29:31.098Z,25.13
2018-06-11T20:32:00.093Z,25.09
2018-06-11T20:34:28.912Z,25.05
2018-06-11T20:36:57.811Z,25.04
2018-06-11T20:39:26.543Z,25.01
2018-06-11T20:41:55.249Z,25.00
2018-06-11T20:44:23.934Z,24.98
2018-06-11T20:46:52.684Z,24.96
2018-06-11T20:49:21.540Z,24.93
2018-06-11T20:51:50.215Z,24.89
2018-06-11T20:54:18.853Z,24.85
2018-06-11T20:56:47.621Z,24.79
2018-06-11T20:59:16.251Z,24.75
2018-06-11T21:01:44.984Z,24.67
2018-06-11T21:04:13.868Z,24.64
2018-06-11T21:06:42.592Z,24.59
2018-06-11T21:09:11.254Z,24.54
2018-06-11T21:11:40.054Z,24.52
2018-06-11T21:14:08.805Z,24.49
2018-06-11T21:16:37.621Z,24.44
2018-06-11T21:19:06.273Z,24.39
2018-06-11T21:21:34.987Z,24.37
2018-06-11T21:24:03.804Z,24.36
2018-06-11T21:26:32.495Z,24.37
2018-06-11T21:29:01.188Z,24.32
2018-06-11T21:31:29.799Z,24.25
2018-06-11T21:33:58.522Z,24.24
2018-06-11T21:36:27.197Z,24.22
2018-06-11T21:38:55.909Z,24.19
2018-06-11T21:41:25.048Z,24.16
2018-06-11T21:43:53.769Z,24.11
2018-06-11T21:46:22.501Z,24.06
2018-06-11T21:48:51.424Z,24.04
2018-06-11T21:51:20.064Z,24.02
2018-06-11T21:53:48.723Z,23.98
2018-06-11T21:56:17.294Z,23.96
2018-06-11T21:58:45.878Z,23.93
2018-06-11T22:01:14.464Z,23.92
2018-06-11T22:03:43.101Z,23.91
2018-06-11T22:06:11.596Z,23.86
2018-06-11T22:08:40.316Z,23.84
2018-06-11T22:11:08.955Z,23.79
2018-06-11T22:13:37.677Z,23.78
2018-06-11T22:16:06.305Z,23.77
2018-06-11T22:18:35.010Z,23.68
2018-06-11T22:21:03.659Z,23.70
2018-06-11T22:23:32.344Z,23.63
2018-06-11T22:26:00.992Z,23.60
2018-06-11T22:28:29.702Z,23.56
2018-06-11T22:30:58.335Z,23.55
2018-06-11T22:33:27.190Z,23.54
2018-06-11T22:35:55.896Z,23.51
2018-06-11T22:38:24.578Z,23.51
2018-06-11T22:40:53.341Z,23.49
2018-06-11T22:43:22.128Z,23.47
2018-06-11T22:45:50.733Z,23.45
2018-06-11T22:48:19.311Z,23.44
2018-06-11T22:50:47.890Z,23.41
2018-06-11T22:53:16.524Z,23.35
2018-06-11T22:55:45.224Z,23.33
2018-06-11T22:58:13.850Z,23.27
2018-06-11T23:00:42.478Z,23.24
2018-06-11T23:03:11.103Z,23.20
2018-06-11T23:05:39.758Z,23.15
2018-06-11T23:08:08.416Z,23.15
2018-06-11T23:10:37.065Z,23.10
2018-06-11T23:13:05.821Z,23.10
2018-06-11T23:15:34.587Z,23.03
2018-06-11T23:18:03.226Z,23.00
2018-06-11T23:20:31.867Z,22.94
2018-06-11T23:23:00.527Z,22.89
2018-06-11T23:25:29.291Z,22.86
2018-06-11T23:27:57.946Z,22.83
2018-06-11T23:30:26.627Z,22.74
2018-06-11T23:32:55.208Z,22.77
2018-06-11T23:35:23.864Z,22.75
2018-06-11T23:37:52.525Z,22.75
2018-06-11T23:40:21.182Z,22.75
2018-06-11T23:42:49.824Z,22.75
2018-06-11T23:45:18.431Z,22.70
2018-06-11T23:47:47.159Z,22.66
2018-06-11T23:50:15.896Z,22.61
2018-06-11T23:52:44.651Z,22.59
2018-06-11T23:55:13.363Z,22.58
2018-06-11T23:57:42.247Z,22.53
